Terminal Aerodrome Forecast
Issued by NWS Twin Cities, MN

Home | Current Version | Previous Version | Graphics & Text | Print | Product List | Glossary On
Versions: 1 2 3 4 5 6 7 8 9 10 11 12 13 14 15 16 17 18 19 20 21 22 23
000
FTUS43 KMPX 232000 AAA
TAFMSP
TAF AMD
KMSP 232056Z 2321/2424 34011KT 6SM -SHSN BR BKN015 OVC020
     FM240600 33009KT 6SM BR OVC009
     FM241800 32008KT P6SM OVC011=

USA.gov is the U.S. government's official web portal to all federal, state and local government web resources and services.